Time;durP1;ratioP1;P1;durP2;ratioP2;P2;SDS_P1;SDS_P2;PMS_P1;PMS_P2;Temp;Humidity;BMP_temperature;BMP_pressure;BME280_temperature;BME280_humidity;BME280_pressure;Samples;Min_cycle;Max_cycle;Signal;HPM_P1;HPM_P2
2022/12/14 00:01:55;;;;;;;10.07;7.07;;;5.70;86.90;;;;;;10717424;33;20020;-74
2022/12/14 00:07:57;;;;;;;11.00;7.07;;;5.70;86.90;;;;;;10717227;33;20020;-74
2022/12/14 00:14:00;;;;;;;11.30;7.43;;;5.60;86.90;;;;;;10717249;33;20392;-74
2022/12/14 00:20:04;;;;;;;12.48;8.52;;;5.70;87.00;;;;;;10716967;33;20056;-74
2022/12/14 00:26:18;;;;;;;11.73;9.32;;;5.70;87.00;;;;;;10711652;33;20394;-74
2022/12/14 00:32:20;;;;;;;13.15;10.15;;;5.80;87.00;;;;;;10716788;33;20048;-74
2022/12/14 00:38:36;;;;;;;13.57;9.52;;;6.10;86.80;;;;;;10716531;33;20075;-74
2022/12/14 00:44:39;;;;;;;15.50;12.18;;;6.30;86.60;;;;;;10716273;33;20052;-74
2022/12/14 00:50:41;;;;;;;15.98;11.60;;;6.50;86.50;;;;;;10715046;33;20024;-74
2022/12/14 00:56:43;;;;;;;16.95;11.40;;;6.50;86.40;;;;;;10765569;32;20047;-74
2022/12/14 01:02:45;;;;;;;16.45;10.70;;;6.40;86.20;;;;;;10715760;33;20033;-74
2022/12/14 01:08:48;;;;;;;13.15;9.50;;;6.20;86.60;;;;;;10715745;33;20025;-74
2022/12/14 01:14:50;;;;;;;15.07;9.80;;;6.00;86.90;;;;;;10715578;33;20020;-74
2022/12/14 01:20:52;;;;;;;14.73;10.95;;;6.10;87.00;;;;;;10764609;32;20304;-74
2022/12/14 01:26:54;;;;;;;15.15;10.10;;;6.10;86.70;;;;;;10715311;33;20025;-74
2022/12/14 01:32:56;;;;;;;12.93;9.43;;;5.90;86.70;;;;;;10715170;33;20053;-74
2022/12/14 01:39:02;;;;;;;14.50;9.45;;;5.90;87.00;;;;;;10710810;33;20062;-74
2022/12/14 01:45:05;;;;;;;15.23;10.85;;;6.00;87.00;;;;;;10714863;33;20363;-74
2022/12/14 01:51:08;;;;;;;13.15;9.57;;;6.10;86.90;;;;;;10714649;33;20051;-74
2022/12/14 01:57:12;;;;;;;14.73;9.52;;;6.10;86.80;;;;;;10714586;33;20021;-74
2022/12/14 02:03:42;;;;;;;14.18;9.18;;;6.10;86.60;;;;;;10714587;32;20087;-74
2022/12/14 02:09:47;;;;;;;12.60;9.35;;;5.90;86.90;;;;;;10758818;32;20047;-74
2022/12/14 02:15:50;;;;;;;12.60;8.40;;;5.80;87.10;;;;;;10714243;32;20395;-74
2022/12/14 02:22:16;;;;;;;17.60;12.73;;;6.00;87.00;;;;;;10713979;32;20034;-75
2022/12/14 02:28:44;;;;;;;12.98;9.50;;;6.10;87.00;;;;;;10715832;33;20092;-74
2022/12/14 02:35:02;;;;;;;12.73;8.63;;;6.20;86.70;;;;;;10720215;32;20029;-74
2022/12/14 02:41:05;;;;;;;;;;;5.90;86.80;;;;;;10716093;32;20378;-74
2022/12/14 02:47:21;;;;;;;11.85;8.75;;;5.80;87.00;;;;;;10719722;33;20338;-74
2022/12/14 02:53:50;;;;;;;13.88;9.02;;;5.70;87.20;;;;;;10719576;33;20017;-74
2022/12/14 02:59:55;;;;;;;;;;;5.70;87.30;;;;;;10719588;33;20021;-74
2022/12/14 03:06:03;;;;;;;12.20;8.90;;;5.60;87.30;;;;;;10717515;33;19928;-74
2022/12/14 03:12:11;;;;;;;12.35;8.82;;;5.60;87.40;;;;;;10719028;33;20098;-74
2022/12/14 03:18:17;;;;;;;11.57;8.77;;;5.60;87.50;;;;;;10768541;32;20033;-74
2022/12/14 03:24:27;;;;;;;11.25;8.98;;;5.60;87.40;;;;;;10718617;33;20419;-74
2022/12/14 03:30:31;;;;;;;10.43;8.43;;;5.70;87.40;;;;;;10718488;33;20048;-74
2022/12/14 03:36:46;;;;;;;17.92;13.32;;;5.60;87.30;;;;;;10714256;33;20038;-74
2022/12/14 03:43:03;;;;;;;14.90;11.12;;;5.80;87.60;;;;;;10717546;33;20033;-74
2022/12/14 03:49:17;;;;;;;17.58;13.55;;;6.30;87.00;;;;;;10717978;32;20061;-74
2022/12/14 03:55:22;;;;;;;15.30;12.15;;;6.60;86.50;;;;;;10767504;32;20048;-74
2022/12/14 04:01:32;;;;;;;23.87;16.33;;;6.70;86.00;;;;;;10716644;33;20346;-74
2022/12/14 04:07:59;;;;;;;15.45;12.37;;;6.60;86.20;;;;;;10717519;33;20052;-74
2022/12/14 04:20:49;;;;;;;15.15;11.30;;;6.40;86.30;;;;;;10717059;33;20296;-74
2022/12/14 04:26:55;;;;;;;;;;;6.70;86.20;;;;;;10717104;33;20029;-74
2022/12/14 04:39:43;;;;;;;12.93;10.23;;;6.10;86.50;;;;;;10716379;33;20095;-77
2022/12/14 04:45:53;;;;;;;12.90;9.43;;;5.90;86.80;;;;;;10716393;33;20458;-77
2022/12/14 04:52:05;;;;;;;16.02;12.05;;;5.80;87.00;;;;;;10715506;33;20017;-77
2022/12/14 04:58:22;;;;;;;13.40;9.20;;;5.70;87.20;;;;;;10716028;33;20363;-77
2022/12/14 05:04:54;;;;;;;12.75;10.30;;;5.80;87.20;;;;;;10716347;33;20048;-77
2022/12/14 05:11:04;;;;;;;15.05;10.40;;;5.90;87.20;;;;;;10715741;33;20048;-77
2022/12/14 05:17:07;;;;;;;16.67;10.18;;;5.80;87.10;;;;;;10715549;33;20044;-77
2022/12/14 05:23:09;;;;;;;12.07;8.57;;;5.80;87.10;;;;;;10715248;33;20055;-77
2022/12/14 05:29:11;;;;;;;13.43;9.98;;;5.90;87.30;;;;;;10715396;33;20017;-77
2022/12/14 05:35:14;;;;;;;12.88;9.63;;;6.10;87.20;;;;;;10715014;33;20025;-78
2022/12/14 05:41:15;;;;;;;13.02;8.98;;;6.10;86.90;;;;;;10714795;33;20046;-77
2022/12/14 05:47:17;;;;;;;13.60;9.57;;;6.20;87.00;;;;;;10764334;32;20048;-77
2022/12/14 05:53:19;;;;;;;10.88;8.27;;;6.10;86.80;;;;;;10714628;33;20017;-77
2022/12/14 05:59:21;;;;;;;15.90;9.15;;;5.80;87.00;;;;;;10714513;33;20029;-77
2022/12/14 06:05:23;;;;;;;12.70;8.73;;;5.80;87.30;;;;;;10718747;33;20395;-77
2022/12/14 06:11:25;;;;;;;20.42;10.65;;;6.00;87.30;;;;;;10717086;33;20059;-77
2022/12/14 06:17:27;;;;;;;16.37;11.40;;;6.10;87.10;;;;;;10720439;33;20037;-77
2022/12/14 06:23:30;;;;;;;21.40;13.90;;;6.30;87.00;;;;;;10717526;32;20025;-76
2022/12/14 06:29:32;;;;;;;13.38;9.80;;;6.60;86.90;;;;;;10720115;32;20017;-76
2022/12/14 06:35:34;;;;;;;12.90;9.23;;;6.80;86.30;;;;;;10719825;33;20052;-76
2022/12/14 06:41:36;;;;;;;14.60;8.93;;;6.70;85.90;;;;;;10736580;32;20028;-76
2022/12/14 06:47:39;;;;;;;14.52;9.52;;;6.40;86.20;;;;;;10755820;33;20071;-76
2022/12/14 06:53:40;;;;;;;14.15;11.43;;;6.10;86.70;;;;;;10755650;33;20008;-76
2022/12/14 06:59:42;;;;;;;12.52;8.60;;;6.10;86.90;;;;;;10729598;32;20041;-76
2022/12/14 07:05:44;;;;;;;16.17;9.35;;;6.30;87.10;;;;;;10768992;32;20060;-76
2022/12/14 07:11:49;;;;;;;13.73;9.45;;;6.40;86.70;;;;;;10718544;33;20064;-76
2022/12/14 07:18:04;;;;;;;11.52;8.32;;;6.20;86.50;;;;;;10712045;33;20051;-76
2022/12/14 07:24:07;;;;;;;15.30;10.63;;;6.00;86.90;;;;;;10705423;32;20034;-76
2022/12/14 07:30:10;;;;;;;18.25;13.05;;;6.10;87.20;;;;;;10718374;33;20383;-76
2022/12/14 07:36:15;;;;;;;18.05;13.18;;;6.20;87.10;;;;;;10768106;32;20025;-76
2022/12/14 07:42:17;;;;;;;24.67;18.37;;;6.30;86.90;;;;;;10767771;32;20054;-77
2022/12/14 07:48:28;;;;;;;19.33;14.68;;;6.60;87.20;;;;;;10766046;32;20399;-77
2022/12/14 07:54:30;;;;;;;15.82;12.50;;;7.20;86.50;;;;;;10717746;33;20021;-77
2022/12/14 08:00:32;;;;;;;23.55;17.73;;;7.30;85.80;;;;;;10710921;33;20339;-78
2022/12/14 08:06:45;;;;;;;18.77;12.00;;;6.80;85.80;;;;;;10717450;33;20048;-76
2022/12/14 08:12:49;;;;;;;14.80;11.35;;;6.60;86.40;;;;;;10717133;33;20025;-74
2022/12/14 08:18:55;;;;;;;16.75;12.73;;;6.40;86.70;;;;;;10716374;33;20029;-75
2022/12/14 08:24:57;;;;;;;14.52;10.35;;;6.40;86.60;;;;;;10391640;27;10003138;-74
2022/12/14 08:31:05;;;;;;;17.23;12.32;;;6.30;86.70;;;;;;10680737;33;20038;-75
2022/12/14 08:37:07;;;;;;;20.75;14.90;;;6.70;87.50;;;;;;10680439;33;20041;-77
2022/12/14 08:43:09;;;;;;;26.37;14.68;;;7.40;86.90;;;;;;10680212;33;20060;-77
2022/12/14 08:49:11;;;;;;;18.80;13.73;;;7.90;86.30;;;;;;10676181;33;20331;-77
2022/12/14 08:55:13;;;;;;;16.90;14.07;;;7.80;85.40;;;;;;10679992;33;20053;-77
2022/12/14 09:01:21;;;;;;;15.68;12.07;;;7.70;86.50;;;;;;10667042;33;20037;-78
2022/12/14 09:07:23;;;;;;;24.67;17.60;;;7.80;86.00;;;;;;10679867;33;20430;-74
2022/12/14 09:13:26;;;;;;;18.73;14.15;;;7.90;86.80;;;;;;10666819;33;20063;-72
2022/12/14 09:19:28;;;;;;;21.45;16.37;;;8.30;86.70;;;;;;10679237;33;20025;-74
2022/12/14 09:25:30;;;;;;;23.70;16.98;;;8.50;86.30;;;;;;10675153;33;20021;-74
2022/12/14 09:31:32;;;;;;;22.05;16.52;;;8.60;86.30;;;;;;10679009;33;20056;-74
2022/12/14 09:37:34;;;;;;;16.90;14.75;;;8.80;86.00;;;;;;10664584;33;20056;-74
2022/12/14 09:43:44;;;;;;;20.40;15.93;;;8.80;85.60;;;;;;10675163;33;20426;-73
2022/12/14 09:50:11;;;;;;;18.30;10.85;;;8.70;85.90;;;;;;10678699;33;20056;-74
2022/12/14 09:56:18;;;;;;;18.23;14.73;;;8.30;85.60;;;;;;10678635;33;20298;-74
2022/12/14 10:02:31;;;;;;;17.52;14.63;;;8.20;86.90;;;;;;10678346;33;20026;-74
2022/12/14 10:08:58;;;;;;;21.58;13.32;;;8.70;86.30;;;;;;10678259;33;20033;-74
2022/12/14 10:15:17;;;;;;;16.62;10.93;;;8.80;85.60;;;;;;10677956;33;20026;-74
2022/12/14 10:21:21;;;;;;;18.45;11.90;;;8.80;85.70;;;;;;10677951;33;20339;-74
2022/12/14 10:27:27;;;;;;;14.70;10.18;;;8.40;85.70;;;;;;10665170;33;20388;-74
2022/12/14 10:33:31;;;;;;;11.70;9.93;;;8.00;85.90;;;;;;10677568;33;20087;-74
2022/12/14 10:39:47;;;;;;;14.25;9.73;;;8.10;87.00;;;;;;10677555;33;20073;-74
2022/12/14 10:46:16;;;;;;;12.20;8.77;;;8.10;86.70;;;;;;10677437;33;20047;-74
2022/12/14 10:52:26;;;;;;;14.00;10.00;;;8.20;87.10;;;;;;10666971;33;20037;-74
2022/12/14 10:58:28;;;;;;;15.15;10.45;;;8.10;86.90;;;;;;10670587;33;20038;-74
2022/12/14 11:04:33;;;;;;;13.07;9.32;;;7.90;86.60;;;;;;10683207;33;20069;-74
2022/12/14 11:10:38;;;;;;;14.30;9.20;;;8.00;86.90;;;;;;10681893;33;20442;-74
2022/12/14 11:16:40;;;;;;;13.40;9.55;;;7.90;86.80;;;;;;10682827;33;20013;-74
2022/12/14 11:23:07;;;;;;;17.15;13.45;;;7.80;87.20;;;;;;10682557;33;20029;-74
2022/12/14 11:29:33;;;;;;;14.85;10.00;;;8.60;87.80;;;;;;10669700;33;20036;-74
2022/12/14 11:35:36;;;;;;;10.75;7.47;;;9.20;86.90;;;;;;10679977;33;20063;-74
2022/12/14 11:42:11;;;;;;;14.30;9.95;;;8.90;86.40;;;;;;10682177;33;20017;-75
2022/12/14 11:48:16;;;;;;;13.57;10.50;;;9.10;87.40;;;;;;10681772;33;20062;-74
2022/12/14 11:54:18;;;;;;;12.45;9.90;;;9.30;86.60;;;;;;10681761;33;20331;-74
2022/12/14 12:00:43;;;;;;;16.30;9.38;;;9.00;86.80;;;;;;10680911;33;20029;-74
2022/12/14 12:06:44;;;;;;;11.45;9.10;;;8.70;87.10;;;;;;10681066;33;20324;-74
2022/12/14 12:13:06;;;;;;;10.68;7.47;;;8.50;87.40;;;;;;10677916;33;20114;-74
2022/12/14 12:19:32;;;;;;;11.10;7.47;;;8.20;87.60;;;;;;10679857;33;20335;-74
2022/12/14 12:25:37;;;;;;;15.18;11.50;;;8.10;87.70;;;;;;10677787;33;20048;-74
2022/12/14 12:31:57;;;;;;;12.37;9.80;;;8.20;87.90;;;;;;10677328;33;20021;-73
2022/12/14 12:38:57;;;;;;;15.30;10.67;;;8.10;87.30;;;;;;10680485;33;20052;-74
2022/12/14 12:45:17;;;;;;;10.20;7.62;;;8.10;87.50;;;;;;10568897;33;20060;-74
2022/12/14 12:51:26;;;;;;;13.55;7.43;;;8.10;87.00;;;;;;10556990;33;20057;-74
2022/12/14 12:57:34;;;;;;;8.93;6.03;;;8.20;87.50;;;;;;10565565;33;20030;-73
2022/12/14 13:03:42;;;;;;;11.73;8.10;;;8.30;87.40;;;;;;10565546;33;20030;-74
2022/12/14 13:09:54;;;;;;;9.85;6.37;;;8.30;87.10;;;;;;10566198;33;20026;-74
2022/12/14 13:16:22;;;;;;;9.50;5.97;;;8.20;87.20;;;;;;10664023;33;20358;-73
2022/12/14 13:22:30;;;;;;;7.95;5.30;;;8.20;87.40;;;;;;10679366;33;20025;-74
2022/12/14 13:28:51;;;;;;;11.30;7.20;;;8.30;87.50;;;;;;10679257;33;20044;-73
2022/12/14 13:35:31;;;;;;;9.52;6.65;;;8.20;86.70;;;;;;10679019;33;20044;-74
2022/12/14 13:41:42;;;;;;;10.57;7.15;;;8.20;86.90;;;;;;10678846;33;20042;-73
2022/12/14 13:47:50;;;;;;;15.10;9.93;;;8.20;86.80;;;;;;10678874;33;20052;-74
2022/12/14 13:53:57;;;;;;;12.10;8.63;;;8.10;86.50;;;;;;10678195;33;20037;-74
2022/12/14 14:00:00;;;;;;;12.25;8.32;;;8.00;86.40;;;;;;10678327;33;20047;-78
2022/12/14 14:06:11;;;;;;;14.55;10.45;;;8.00;86.70;;;;;;10678486;33;20071;-77
2022/12/14 14:12:22;;;;;;;18.25;12.70;;;7.90;86.70;;;;;;10664477;33;20047;-77
2022/12/14 14:18:27;;;;;;;14.63;9.10;;;7.90;86.50;;;;;;10663512;33;20041;-77
2022/12/14 14:24:58;;;;;;;22.58;18.33;;;8.20;86.80;;;;;;10679957;33;20052;-77
2022/12/14 14:31:00;;;;;;;10.70;7.78;;;8.20;86.70;;;;;;10683845;33;20052;-77
2022/12/14 14:37:23;;;;;;;14.32;9.68;;;8.20;87.00;;;;;;10679733;33;20053;-77
2022/12/14 14:43:36;;;;;;;12.75;8.90;;;8.10;86.50;;;;;;10666130;33;20041;-77
2022/12/14 14:49:42;;;;;;;18.15;12.10;;;8.00;86.90;;;;;;10677015;33;20021;-77
2022/12/14 14:56:30;;;;;;;16.35;11.12;;;8.10;87.20;;;;;;10711619;33;20371;-77
2022/12/14 15:02:39;;;;;;;12.15;8.98;;;8.10;87.00;;;;;;10683357;33;20051;-77
2022/12/14 15:08:44;;;;;;;;;;;8.10;87.30;;;;;;10681269;33;20055;-77
2022/12/14 15:14:52;;;;;;;15.23;10.07;;;8.20;87.30;;;;;;10683071;33;20274;-77
2022/12/14 15:21:03;;;;;;;12.40;9.02;;;8.10;87.10;;;;;;10682533;33;20312;-77
2022/12/14 15:27:29;;;;;;;22.17;14.98;;;7.90;87.40;;;;;;10682380;32;20026;-77
2022/12/14 15:33:37;;;;;;;19.33;14.90;;;7.80;87.50;;;;;;10682549;33;20029;-77
2022/12/14 15:39:42;;;;;;;17.00;11.15;;;7.90;87.10;;;;;;10681536;33;20029;-74
2022/12/14 15:45:48;;;;;;;14.35;9.80;;;7.80;87.00;;;;;;10682195;33;20013;-74
2022/12/14 15:51:51;;;;;;;17.27;11.85;;;7.70;87.00;;;;;;10681850;33;20026;-74
2022/12/14 15:57:54;;;;;;;16.20;11.77;;;7.70;87.30;;;;;;10681613;33;20033;-74
2022/12/14 16:04:02;;;;;;;20.77;11.05;;;7.70;87.20;;;;;;10681568;33;20057;-74
2022/12/14 16:10:37;;;;;;;19.73;14.10;;;7.70;87.10;;;;;;10668386;33;20022;-74
2022/12/14 16:16:39;;;;;;;24.33;18.48;;;7.70;87.30;;;;;;10681424;33;20311;-74
2022/12/14 16:23:00;;;;;;;33.72;21.67;;;7.60;87.10;;;;;;10684356;28;20052;-74
2022/12/14 16:29:19;;;;;;;22.75;14.50;;;7.50;87.40;;;;;;10681080;33;20010;-77
2022/12/14 16:35:26;;;;;;;20.77;13.62;;;7.50;87.10;;;;;;10676685;33;20067;-76
2022/12/14 16:41:40;;;;;;;26.30;17.48;;;7.50;87.20;;;;;;10680381;33;20060;-76
2022/12/14 16:48:06;;;;;;;25.88;16.50;;;7.50;87.20;;;;;;10680058;33;20067;-76
2022/12/14 16:54:24;;;;;;;17.85;13.93;;;7.40;87.40;;;;;;10677645;33;20033;-76
2022/12/14 17:00:34;;;;;;;19.70;15.50;;;7.60;87.50;;;;;;10679670;33;20017;-77
2022/12/14 17:06:54;;;;;;;19.00;13.93;;;7.70;87.40;;;;;;10671761;33;20037;-77
2022/12/14 17:12:58;;;;;;;21.25;13.70;;;7.60;87.30;;;;;;10676511;33;20395;-77
2022/12/14 17:19:03;;;;;;;18.62;13.32;;;7.50;87.30;;;;;;10716142;33;20031;-77
2022/12/14 17:25:06;;;;;;;24.00;17.35;;;7.50;87.50;;;;;;10826691;32;20051;-77
2022/12/14 17:31:09;;;;;;;26.77;14.82;;;7.50;87.60;;;;;;10826301;32;20061;-77
2022/12/14 17:37:18;;;;;;;16.10;11.40;;;7.70;87.60;;;;;;10813075;33;20295;-77
2022/12/14 17:43:24;;;;;;;19.17;13.20;;;7.80;87.50;;;;;;10825555;33;20058;-77
2022/12/14 17:49:35;;;;;;;24.87;17.33;;;7.60;87.40;;;;;;10673335;33;20042;-77
2022/12/14 17:55:37;;;;;;;14.30;10.65;;;7.60;87.50;;;;;;10678679;33;20057;-77
2022/12/14 18:01:40;;;;;;;19.15;14.23;;;7.60;87.60;;;;;;10678252;32;20347;-77
2022/12/14 18:07:42;;;;;;;18.80;13.80;;;7.70;87.60;;;;;;10671961;33;20052;-77
2022/12/14 18:13:44;;;;;;;20.52;16.52;;;7.60;87.50;;;;;;10682942;32;20037;-77
2022/12/14 18:19:46;;;;;;;21.12;16.37;;;7.60;87.60;;;;;;10684350;33;20025;-77
2022/12/14 18:25:52;;;;;;;24.83;17.05;;;7.70;87.80;;;;;;10683977;33;20029;-77
2022/12/14 18:31:54;;;;;;;20.50;15.57;;;7.90;87.60;;;;;;10684275;33;20036;-77
2022/12/14 18:37:57;;;;;;;20.12;13.07;;;7.80;87.50;;;;;;10682231;33;20352;-77
2022/12/14 18:43:59;;;;;;;19.77;14.38;;;7.70;87.40;;;;;;10681249;33;20305;-77
2022/12/14 18:50:02;;;;;;;21.35;16.62;;;7.70;87.60;;;;;;10683605;33;20060;-77
2022/12/14 18:56:08;;;;;;;21.80;15.82;;;7.70;87.60;;;;;;10683362;33;20052;-77
2022/12/14 19:02:17;;;;;;;19.73;13.23;;;7.60;87.60;;;;;;10666407;33;20064;-77
2022/12/14 19:08:19;;;;;;;17.20;13.43;;;7.50;87.50;;;;;;10679088;33;20395;-77
2022/12/14 19:14:21;;;;;;;17.20;14.40;;;7.30;87.60;;;;;;10682010;33;20032;-77
2022/12/14 19:20:24;;;;;;;16.05;11.73;;;7.40;87.60;;;;;;10682643;33;20051;-77
2022/12/14 19:26:27;;;;;;;16.00;10.80;;;7.40;87.50;;;;;;10682599;33;20044;-77
2022/12/14 19:32:30;;;;;;;27.17;18.87;;;7.30;87.60;;;;;;10682214;33;20022;-77
2022/12/14 19:38:34;;;;;;;27.37;21.27;;;7.50;87.90;;;;;;10682055;33;20022;-77
2022/12/14 19:44:36;;;;;;;21.40;15.93;;;7.60;87.60;;;;;;10682100;33;20025;-77
2022/12/14 19:50:38;;;;;;;13.82;11.93;;;7.50;87.50;;;;;;10681851;33;20025;-77
2022/12/14 19:56:40;;;;;;;21.33;14.10;;;7.50;87.60;;;;;;10681848;33;20071;-77
2022/12/14 20:02:43;;;;;;;16.65;12.90;;;7.40;87.70;;;;;;10679155;33;20387;-77
2022/12/14 20:08:47;;;;;;;19.40;13.02;;;7.50;87.90;;;;;;10681195;33;20056;-77
2022/12/14 20:14:50;;;;;;;18.37;13.75;;;7.50;87.80;;;;;;10681090;33;20048;-77
2022/12/14 20:20:52;;;;;;;17.10;13.13;;;7.50;87.80;;;;;;10680545;33;20032;-77
2022/12/14 20:26:54;;;;;;;22.55;14.85;;;7.50;87.90;;;;;;10681011;33;20358;-74
2022/12/14 20:32:57;;;;;;;17.67;13.55;;;7.50;87.80;;;;;;10664146;33;20029;-74
2022/12/14 20:39:00;;;;;;;21.37;15.75;;;7.50;87.80;;;;;;10680408;33;20041;-74
2022/12/14 20:45:03;;;;;;;17.12;12.85;;;7.50;87.90;;;;;;10679114;33;20328;-74
2022/12/14 20:51:05;;;;;;;16.27;12.85;;;7.40;87.80;;;;;;10679698;33;20411;-74
2022/12/14 20:57:07;;;;;;;16.83;11.95;;;7.40;87.90;;;;;;10667057;33;20069;-74
2022/12/14 21:03:10;;;;;;;20.27;11.95;;;7.30;88.00;;;;;;10679888;33;20392;-74
2022/12/14 21:09:12;;;;;;;16.83;11.93;;;7.30;88.00;;;;;;10666773;33;20064;-74
2022/12/14 21:15:14;;;;;;;20.37;15.20;;;7.40;88.00;;;;;;10679158;33;20021;-73
2022/12/14 21:21:17;;;;;;;21.48;14.50;;;7.60;88.10;;;;;;10666108;33;20033;-74
2022/12/14 21:27:25;;;;;;;20.95;15.93;;;7.90;87.60;;;;;;10679295;33;20013;-74
2022/12/14 21:33:28;;;;;;;15.50;12.07;;;7.70;87.50;;;;;;10665594;33;20053;-74
2022/12/14 21:39:30;;;;;;;20.30;14.07;;;7.70;87.60;;;;;;10678988;33;20025;-74
2022/12/14 21:45:32;;;;;;;14.70;10.18;;;7.60;87.90;;;;;;10665886;33;20029;-74
2022/12/14 21:51:35;;;;;;;26.23;21.17;;;7.50;87.90;;;;;;10677721;33;20317;-74
2022/12/14 22:03:58;;;;;;;24.00;13.25;;;7.80;87.70;;;;;;10679084;33;20065;-74
2022/12/14 22:10:00;;;;;;;23.33;17.30;;;7.70;87.80;;;;;;10678325;33;20054;-74
2022/12/14 22:16:06;;;;;;;21.00;14.77;;;7.80;87.80;;;;;;10678308;33;20041;-74
2022/12/14 22:22:14;;;;;;;26.10;14.40;;;7.70;87.70;;;;;;10677593;33;20154;-74
2022/12/14 22:28:16;;;;;;;16.98;12.18;;;7.60;87.80;;;;;;10677924;33;20026;-74
2022/12/14 22:34:21;;;;;;;16.83;13.60;;;7.70;87.90;;;;;;10677971;33;20053;-74
2022/12/14 22:40:23;;;;;;;19.50;15.65;;;7.60;87.90;;;;;;10677641;33;20041;-74
2022/12/14 22:46:26;;;;;;;26.30;19.15;;;7.60;88.00;;;;;;10678121;33;20029;-74
2022/12/14 22:52:28;;;;;;;23.87;18.35;;;7.70;88.20;;;;;;10670974;33;20438;-74
2022/12/14 22:58:31;;;;;;;21.02;15.15;;;8.00;87.90;;;;;;10683626;33;20328;-74
2022/12/14 23:04:36;;;;;;;25.17;14.13;;;8.10;87.50;;;;;;10682545;33;20038;-74
